createdAt,value
2022-10-13T00:00:30.065Z,23.40
2022-10-13T00:03:27.045Z,20.80
2022-10-13T00:06:25.197Z,24.20
2022-10-13T00:09:22.278Z,22.00
2022-10-13T00:12:19.341Z,21.40
2022-10-13T00:15:17.240Z,20.20
2022-10-13T00:18:14.879Z,23.00
2022-10-13T00:21:14.524Z,24.80
2022-10-13T00:24:12.033Z,25.80
2022-10-13T00:27:09.115Z,23.40
2022-10-13T00:30:06.727Z,27.60
2022-10-13T00:33:04.479Z,19.80
2022-10-13T00:36:01.008Z,25.40
2022-10-13T00:38:58.542Z,26.00
2022-10-13T00:41:55.905Z,21.20
2022-10-13T00:45:02.001Z,25.00
2022-10-13T00:48:00.865Z,19.60
2022-10-13T00:50:58.491Z,22.00
2022-10-13T00:53:56.471Z,26.20
2022-10-13T00:56:52.985Z,24.60
2022-10-13T00:59:50.391Z,23.20
2022-10-13T01:02:47.578Z,32.80
2022-10-13T01:05:44.036Z,22.80
2022-10-13T01:08:41.478Z,29.20
2022-10-13T01:11:43.872Z,23.80
2022-10-13T01:14:56.119Z,27.60
2022-10-13T01:18:01.888Z,26.60
2022-10-13T01:21:13.559Z,26.40
2022-10-13T01:24:33.333Z,27.80
2022-10-13T01:27:39.953Z,25.80
2022-10-13T01:30:40.238Z,28.00
2022-10-13T01:33:46.071Z,26.80
2022-10-13T01:36:53.438Z,26.80
2022-10-13T01:40:06.002Z,32.20
2022-10-13T01:43:07.184Z,24.80
2022-10-13T01:46:04.252Z,32.40
2022-10-13T01:49:03.036Z,25.60
2022-10-13T01:52:02.010Z,29.60
2022-10-13T01:55:05.250Z,25.80
2022-10-13T01:58:02.336Z,24.40
2022-10-13T02:01:36.322Z,24.40
2022-10-13T02:04:45.836Z,32.40
2022-10-13T02:07:55.621Z,32.80
2022-10-13T02:10:59.307Z,33.20
2022-10-13T02:14:13.723Z,28.60
2022-10-13T02:17:11.648Z,32.40
2022-10-13T02:20:11.384Z,28.00
2022-10-13T02:23:10.940Z,31.40
2022-10-13T02:26:08.172Z,30.20
2022-10-13T02:29:15.969Z,33.80
2022-10-13T02:32:13.230Z,38.60
2022-10-13T02:35:10.024Z,31.80
2022-10-13T02:38:07.417Z,36.00
2022-10-13T02:41:04.614Z,28.00
2022-10-13T02:44:01.235Z,26.60
2022-10-13T02:47:04.019Z,38.80
2022-10-13T02:50:01.529Z,37.80
2022-10-13T02:52:58.475Z,27.60
2022-10-13T02:55:55.075Z,42.00
2022-10-13T02:58:52.597Z,37.80
2022-10-13T03:01:49.511Z,41.40
2022-10-13T03:04:48.014Z,37.00
2022-10-13T03:07:45.805Z,40.00
2022-10-13T03:10:43.385Z,34.00
2022-10-13T03:13:40.355Z,30.40
2022-10-13T03:16:37.201Z,41.20
2022-10-13T03:19:40.290Z,41.00
2022-10-13T03:22:40.019Z,38.20
2022-10-13T03:25:38.628Z,43.00
2022-10-13T03:28:35.410Z,35.40
2022-10-13T03:31:32.169Z,35.60
2022-10-13T03:34:35.242Z,46.40
2022-10-13T03:37:32.136Z,48.20
2022-10-13T03:40:29.581Z,46.20
2022-10-13T03:43:26.460Z,40.80
2022-10-13T03:46:23.174Z,36.00
2022-10-13T03:49:20.590Z,33.20
2022-10-13T03:52:17.866Z,45.60
2022-10-13T03:55:15.322Z,40.40
2022-10-13T03:58:12.347Z,38.00
2022-10-13T04:01:13.625Z,45.20
2022-10-13T04:04:13.082Z,45.00
2022-10-13T04:07:12.781Z,46.20
2022-10-13T04:10:11.394Z,46.60
2022-10-13T04:13:10.333Z,44.00
2022-10-13T04:16:13.473Z,45.40
2022-10-13T04:19:10.886Z,46.00
2022-10-13T04:22:08.635Z,41.40
2022-10-13T04:25:06.882Z,44.60
2022-10-13T04:28:05.417Z,39.60
2022-10-13T04:31:03.188Z,40.60
2022-10-13T04:34:02.290Z,41.00
2022-10-13T04:36:59.479Z,39.60
2022-10-13T04:39:56.390Z,42.60
2022-10-13T04:42:53.191Z,48.80
2022-10-13T04:45:50.608Z,37.20
2022-10-13T04:48:47.562Z,45.80
2022-10-13T04:51:44.538Z,47.00
2022-10-13T04:54:42.437Z,45.40
2022-10-13T04:57:39.273Z,42.20
2022-10-13T05:00:36.697Z,41.20
2022-10-13T05:03:33.737Z,37.80
2022-10-13T05:06:32.326Z,39.80
2022-10-13T05:09:29.178Z,49.00
2022-10-13T05:12:26.466Z,40.80
2022-10-13T05:15:23.820Z,46.40
2022-10-13T05:18:21.526Z,42.00
2022-10-13T05:21:20.525Z,41.80
2022-10-13T05:24:17.584Z,44.60
2022-10-13T05:27:17.532Z,42.80
2022-10-13T05:30:14.387Z,33.60
2022-10-13T05:33:11.508Z,44.20
2022-10-13T05:36:22.052Z,51.60
2022-10-13T05:39:20.282Z,41.00
2022-10-13T05:42:17.426Z,44.00
2022-10-13T05:45:14.766Z,31.80
2022-10-13T05:48:11.570Z,37.60
2022-10-13T05:51:12.677Z,49.80
2022-10-13T05:54:20.267Z,40.20
2022-10-13T05:57:24.784Z,32.80
2022-10-13T06:00:22.717Z,44.20
2022-10-13T06:03:21.222Z,42.20
2022-10-13T06:06:18.630Z,41.00
2022-10-13T06:09:15.370Z,41.00
2022-10-13T06:12:13.251Z,36.00
2022-10-13T06:15:11.107Z,29.40
2022-10-13T06:18:10.764Z,38.40
2022-10-13T06:21:07.924Z,37.20
2022-10-13T06:24:05.704Z,48.80
2022-10-13T06:27:02.403Z,37.80
2022-10-13T06:29:59.530Z,40.40
2022-10-13T06:32:56.830Z,40.20
2022-10-13T06:35:55.460Z,41.00
2022-10-13T06:38:53.151Z,29.40
2022-10-13T06:41:52.307Z,43.80
2022-10-13T06:44:49.654Z,42.80
2022-10-13T06:47:46.539Z,42.80
2022-10-13T06:50:43.473Z,43.00
2022-10-13T06:53:40.490Z,42.40
2022-10-13T06:56:37.541Z,34.40
2022-10-13T06:59:40.569Z,38.80
2022-10-13T07:02:37.616Z,32.60
2022-10-13T07:05:34.552Z,39.40
2022-10-13T07:08:32.208Z,44.00
2022-10-13T07:11:29.456Z,40.80
2022-10-13T07:14:26.492Z,35.40
2022-10-13T07:17:23.664Z,37.60
2022-10-13T07:20:21.459Z,39.60
2022-10-13T07:23:18.201Z,40.60
2022-10-13T07:26:16.087Z,38.80
2022-10-13T07:29:13.955Z,28.40
2022-10-13T07:32:11.578Z,31.80
2022-10-13T07:35:09.932Z,45.00
2022-10-13T07:38:08.176Z,39.80
2022-10-13T07:41:06.542Z,37.60
2022-10-13T07:44:03.512Z,37.40
2022-10-13T07:47:00.773Z,29.40
2022-10-13T07:49:57.564Z,39.00
2022-10-13T07:52:54.808Z,36.00
2022-10-13T07:55:51.673Z,39.60
2022-10-13T07:58:48.810Z,44.20
2022-10-13T08:01:45.842Z,31.20
2022-10-13T08:04:42.373Z,38.00
2022-10-13T08:07:39.987Z,39.60
2022-10-13T08:10:37.279Z,31.40
2022-10-13T08:13:34.670Z,1.33
2022-10-13T08:16:48.627Z,36.40
2022-10-13T08:19:48.723Z,35.00
2022-10-13T08:22:45.562Z,42.00
2022-10-13T08:25:43.182Z,38.00
2022-10-13T08:28:42.747Z,35.40
2022-10-13T08:31:45.971Z,38.00
2022-10-13T08:34:43.778Z,34.80
2022-10-13T08:37:40.347Z,32.60
2022-10-13T08:40:38.301Z,34.40
2022-10-13T08:43:35.775Z,41.00
2022-10-13T08:46:54.457Z,38.20
2022-10-13T08:49:53.506Z,39.60
2022-10-13T08:53:02.051Z,23.60
2022-10-13T08:56:13.273Z,32.00
2022-10-13T08:59:14.111Z,38.00
2022-10-13T09:02:13.954Z,24.40
2022-10-13T09:05:41.811Z,35.40
2022-10-13T09:08:50.207Z,31.20
2022-10-13T09:11:49.053Z,30.60
2022-10-13T09:14:56.940Z,28.40
2022-10-13T09:18:08.972Z,36.00
2022-10-13T09:21:10.468Z,30.40
2022-10-13T09:24:08.828Z,30.60
2022-10-13T09:27:10.479Z,27.20
2022-10-13T09:30:29.731Z,21.80
2022-10-13T09:33:27.701Z,25.40
2022-10-13T09:36:24.852Z,31.40
2022-10-13T09:39:22.784Z,33.80
2022-10-13T09:42:19.864Z,25.60
2022-10-13T09:45:19.092Z,27.20
2022-10-13T09:48:22.895Z,25.60
2022-10-13T09:51:40.007Z,28.20
2022-10-13T09:54:53.123Z,24.40
2022-10-13T09:57:51.715Z,27.20
2022-10-13T10:00:49.516Z,25.40
2022-10-13T10:03:49.340Z,21.00
2022-10-13T10:06:46.969Z,25.60
2022-10-13T10:09:45.951Z,33.40
2022-10-13T10:12:43.763Z,25.00
2022-10-13T10:16:16.155Z,26.60
2022-10-13T10:19:24.560Z,26.00
2022-10-13T10:22:30.693Z,26.80
2022-10-13T10:25:45.922Z,17.20
2022-10-13T10:28:53.871Z,18.00
2022-10-13T10:32:11.350Z,27.80
2022-10-13T10:35:35.299Z,23.00
2022-10-13T10:38:32.431Z,21.40
2022-10-13T10:41:45.219Z,25.60
2022-10-13T10:44:43.466Z,24.00
2022-10-13T10:47:42.471Z,28.00
2022-10-13T10:50:39.841Z,22.20
2022-10-13T10:53:51.890Z,21.40
2022-10-13T10:57:22.975Z,19.60
2022-10-13T11:00:22.389Z,20.20
2022-10-13T11:03:30.006Z,24.60
2022-10-13T11:06:36.159Z,19.60
2022-10-13T11:09:42.712Z,14.80
2022-10-13T11:12:52.106Z,18.00
2022-10-13T11:15:50.949Z,21.20
2022-10-13T11:19:28.675Z,19.80
2022-10-13T11:22:29.974Z,20.60
2022-10-13T11:25:39.734Z,23.80
2022-10-13T11:28:41.253Z,21.20
2022-10-13T11:31:50.535Z,16.00
2022-10-13T11:35:06.589Z,21.00
2022-10-13T11:38:15.339Z,29.20
2022-10-13T11:41:18.944Z,18.60
2022-10-13T11:47:49.891Z,20.40
2022-10-13T11:50:49.451Z,20.40
2022-10-13T11:53:54.567Z,24.40
2022-10-13T11:56:55.707Z,15.60
2022-10-13T11:59:56.133Z,26.80
2022-10-13T12:02:59.966Z,16.60
2022-10-13T12:06:05.096Z,21.40
2022-10-13T12:09:25.001Z,20.40
2022-10-13T12:12:25.571Z,27.00
2022-10-13T12:15:43.637Z,18.80
2022-10-13T12:18:41.246Z,24.00
2022-10-13T12:21:49.301Z,30.80
2022-10-13T12:25:06.144Z,25.20
2022-10-13T12:28:04.107Z,17.40
2022-10-13T12:31:01.964Z,21.80
2022-10-13T12:34:03.003Z,24.20
2022-10-13T12:37:03.902Z,26.20
2022-10-13T12:40:01.021Z,21.80
2022-10-13T12:42:57.698Z,22.40
2022-10-13T12:45:54.785Z,18.00
2022-10-13T12:48:52.189Z,16.20
2022-10-13T12:52:14.895Z,17.60
2022-10-13T12:55:17.631Z,11.00
2022-10-13T12:58:18.904Z,21.60
2022-10-13T13:01:28.480Z,18.00
2022-10-13T13:04:40.969Z,17.80
2022-10-13T13:07:38.253Z,21.00
2022-10-13T13:10:35.968Z,19.60
2022-10-13T13:13:33.014Z,20.20
2022-10-13T13:16:30.038Z,15.80
2022-10-13T13:19:26.880Z,17.00
2022-10-13T13:22:24.211Z,18.60
2022-10-13T13:25:22.444Z,18.00
2022-10-13T13:28:19.886Z,22.20
2022-10-13T13:31:17.933Z,17.80
2022-10-13T13:34:14.872Z,16.60
2022-10-13T13:37:21.519Z,16.20
2022-10-13T13:40:21.290Z,17.80
2022-10-13T13:43:18.949Z,16.00
2022-10-13T13:46:24.410Z,17.20
2022-10-13T13:49:22.309Z,16.80
2022-10-13T13:52:20.825Z,20.60
2022-10-13T13:55:18.031Z,22.80
2022-10-13T13:58:15.068Z,21.40
2022-10-13T14:01:11.919Z,19.00
2022-10-13T14:04:09.024Z,15.00
2022-10-13T14:07:06.071Z,21.60
2022-10-13T14:10:02.920Z,18.00
2022-10-13T14:13:00.911Z,16.80
2022-10-13T14:16:01.558Z,18.20
2022-10-13T14:19:00.666Z,18.20
2022-10-13T14:21:58.067Z,21.40
2022-10-13T14:24:55.049Z,21.40
2022-10-13T14:27:51.998Z,20.80
2022-10-13T14:30:48.913Z,16.60
2022-10-13T14:33:48.706Z,24.00
2022-10-13T14:36:48.167Z,19.80
2022-10-13T14:39:45.925Z,22.00
2022-10-13T14:42:43.054Z,20.00
2022-10-13T14:45:48.907Z,19.80
2022-10-13T14:48:47.120Z,23.80
2022-10-13T14:51:46.495Z,20.20
2022-10-13T14:54:45.178Z,22.20
2022-10-13T14:57:43.339Z,25.20
2022-10-13T15:00:43.104Z,21.20
2022-10-13T15:03:40.037Z,21.40
2022-10-13T15:06:39.957Z,19.80
2022-10-13T15:09:52.656Z,22.60
2022-10-13T15:12:54.100Z,20.00
2022-10-13T15:15:50.974Z,24.20
2022-10-13T15:18:48.348Z,25.20
2022-10-13T15:21:46.385Z,28.40
2022-10-13T15:24:44.173Z,23.80
2022-10-13T15:27:42.239Z,27.00
2022-10-13T15:30:40.535Z,24.80
2022-10-13T15:33:39.462Z,27.00
2022-10-13T15:36:37.029Z,28.40
2022-10-13T15:39:33.969Z,25.60
2022-10-13T15:42:31.164Z,31.20
2022-10-13T15:45:28.233Z,29.60
2022-10-13T15:48:26.243Z,26.00
2022-10-13T15:51:24.279Z,21.20
2022-10-13T15:54:21.400Z,18.20
2022-10-13T15:57:19.150Z,21.80
2022-10-13T16:00:16.561Z,17.40
2022-10-13T16:03:17.831Z,19.80
2022-10-13T16:06:15.264Z,16.40
2022-10-13T16:09:12.711Z,18.60
2022-10-13T16:12:09.768Z,21.60
2022-10-13T16:15:07.896Z,16.80
2022-10-13T16:18:05.390Z,18.60
2022-10-13T16:21:18.033Z,18.00
2022-10-13T16:24:16.286Z,21.80
2022-10-13T16:27:13.432Z,16.20
2022-10-13T16:30:11.741Z,21.00
2022-10-13T16:33:09.190Z,18.80
2022-10-13T16:36:10.404Z,18.20
2022-10-13T16:39:09.073Z,19.00
2022-10-13T16:42:08.929Z,17.20
2022-10-13T16:45:06.632Z,19.00
2022-10-13T16:48:04.275Z,15.60
2022-10-13T16:51:04.999Z,21.40
2022-10-13T16:54:04.409Z,24.60
2022-10-13T16:57:02.336Z,20.40
2022-10-13T16:59:58.782Z,15.20
2022-10-13T17:02:59.269Z,24.20
2022-10-13T17:05:56.308Z,23.40
2022-10-13T17:08:53.029Z,25.80
2022-10-13T17:11:49.856Z,32.20
2022-10-13T17:14:47.963Z,33.00
2022-10-13T17:17:45.207Z,35.40
2022-10-13T17:20:56.808Z,30.60
2022-10-13T17:23:55.368Z,30.40
2022-10-13T17:26:52.204Z,30.20
2022-10-13T17:29:50.039Z,30.60
2022-10-13T17:32:47.322Z,28.80
2022-10-13T17:35:44.251Z,30.20
2022-10-13T17:38:41.327Z,35.40
2022-10-13T17:41:38.035Z,32.00
2022-10-13T17:44:34.936Z,34.60
2022-10-13T17:47:32.238Z,33.40
2022-10-13T17:50:29.812Z,37.20
2022-10-13T17:53:27.049Z,34.00
2022-10-13T17:56:24.618Z,30.00
2022-10-13T17:59:22.168Z,27.20
2022-10-13T18:02:19.427Z,26.00
2022-10-13T18:05:16.490Z,29.40
2022-10-13T18:08:13.993Z,28.40
2022-10-13T18:11:13.470Z,23.20
2022-10-13T18:14:10.899Z,25.40
2022-10-13T18:17:10.992Z,26.00
2022-10-13T18:20:08.328Z,28.00
2022-10-13T18:23:06.064Z,22.20
2022-10-13T18:26:04.122Z,27.00
2022-10-13T18:29:01.398Z,33.20
2022-10-13T18:31:58.364Z,31.80
2022-10-13T18:34:54.975Z,35.40
2022-10-13T18:37:52.281Z,31.40
2022-10-13T18:40:50.267Z,33.40
2022-10-13T18:43:46.869Z,28.00
2022-10-13T18:46:48.777Z,29.60
2022-10-13T18:49:46.030Z,30.40
2022-10-13T18:52:43.127Z,32.00
2022-10-13T18:55:43.102Z,30.00
2022-10-13T18:58:40.234Z,35.80
2022-10-13T19:01:37.281Z,32.00
2022-10-13T19:04:35.570Z,36.60
2022-10-13T19:07:38.173Z,36.40
2022-10-13T19:10:36.649Z,29.20
2022-10-13T19:13:34.087Z,26.20
2022-10-13T19:16:31.570Z,33.80
2022-10-13T19:19:29.393Z,25.40
2022-10-13T19:22:28.170Z,37.80
2022-10-13T19:25:25.636Z,34.00
2022-10-13T19:28:23.130Z,32.40
2022-10-13T19:31:25.271Z,26.20
2022-10-13T19:34:23.217Z,32.60
2022-10-13T19:37:20.550Z,28.60
2022-10-13T19:40:18.267Z,34.40
2022-10-13T19:43:19.099Z,40.60
2022-10-13T19:46:16.442Z,26.00
2022-10-13T19:49:13.804Z,29.20
2022-10-13T19:52:14.940Z,37.20
2022-10-13T19:55:12.298Z,39.20
2022-10-13T19:58:09.236Z,34.80
2022-10-13T20:01:08.549Z,34.40
2022-10-13T20:04:07.278Z,34.20
2022-10-13T20:07:05.117Z,36.00
2022-10-13T20:10:02.096Z,34.80
2022-10-13T20:13:01.043Z,33.40
2022-10-13T20:15:58.485Z,33.20
2022-10-13T20:18:56.849Z,46.20
2022-10-13T20:21:54.005Z,38.40
2022-10-13T20:24:51.877Z,40.80
2022-10-13T20:27:49.408Z,43.20
2022-10-13T20:30:45.959Z,34.80
2022-10-13T20:33:43.795Z,37.80
2022-10-13T20:36:40.933Z,42.00
2022-10-13T20:39:38.562Z,42.80
2022-10-13T20:42:35.303Z,42.00
2022-10-13T20:45:32.339Z,37.40
2022-10-13T20:48:45.575Z,46.20
2022-10-13T20:51:48.440Z,37.60
2022-10-13T20:54:45.240Z,46.60
2022-10-13T20:57:42.111Z,40.00
2022-10-13T21:00:43.352Z,44.20
2022-10-13T21:03:40.558Z,41.20
2022-10-13T21:06:38.011Z,41.80
2022-10-13T21:09:36.157Z,32.40
2022-10-13T21:12:33.084Z,31.60
2022-10-13T21:15:30.301Z,43.40
2022-10-13T21:18:27.372Z,40.00
2022-10-13T21:21:28.995Z,46.20
2022-10-13T21:24:26.549Z,51.40
2022-10-13T21:27:23.608Z,46.80
2022-10-13T21:30:21.443Z,41.80
2022-10-13T21:33:18.313Z,45.40
2022-10-13T21:36:17.074Z,37.40
2022-10-13T21:39:14.108Z,41.00
2022-10-13T21:42:11.556Z,37.60
2022-10-13T21:45:09.058Z,43.40
2022-10-13T21:48:06.752Z,35.80
2022-10-13T21:51:14.277Z,40.60
2022-10-13T21:54:11.929Z,44.60
2022-10-13T21:57:09.341Z,38.20
2022-10-13T22:00:06.889Z,36.40
2022-10-13T22:03:09.181Z,45.80
2022-10-13T22:06:07.267Z,39.60
2022-10-13T22:09:05.096Z,43.00
2022-10-13T22:12:03.224Z,40.40
2022-10-13T22:15:00.252Z,37.40
2022-10-13T22:17:57.325Z,35.20
2022-10-13T22:20:54.430Z,40.20
2022-10-13T22:23:51.127Z,39.80
2022-10-13T22:26:48.369Z,37.80
2022-10-13T22:29:45.240Z,46.60
2022-10-13T22:32:42.124Z,40.20
2022-10-13T22:35:39.246Z,40.60
2022-10-13T22:38:36.237Z,42.00
2022-10-13T22:41:34.755Z,44.40
2022-10-13T22:44:32.159Z,42.40
2022-10-13T22:47:29.299Z,35.80
2022-10-13T22:50:26.360Z,47.80
2022-10-13T22:53:23.595Z,41.60
2022-10-13T22:56:23.076Z,51.00
2022-10-13T22:59:20.395Z,55.40
2022-10-13T23:02:17.205Z,47.60
2022-10-13T23:05:14.446Z,41.40
2022-10-13T23:08:11.511Z,47.80
2022-10-13T23:11:07.898Z,50.20
2022-10-13T23:14:05.270Z,52.00
2022-10-13T23:17:02.472Z,52.80
2022-10-13T23:19:59.227Z,50.80
2022-10-13T23:22:56.545Z,52.80
2022-10-13T23:25:53.340Z,51.40
2022-10-13T23:28:50.403Z,54.20
2022-10-13T23:31:47.301Z,56.20
2022-10-13T23:34:44.519Z,58.80
2022-10-13T23:37:43.297Z,49.00
2022-10-13T23:40:40.943Z,53.40
2022-10-13T23:43:38.642Z,54.60
2022-10-13T23:46:35.291Z,62.00
2022-10-13T23:49:32.243Z,56.20
2022-10-13T23:52:29.243Z,56.20
2022-10-13T23:55:26.309Z,59.40
2022-10-13T23:58:23.190Z,58.20
